CPX447 Details

Departure: Salt Lake City International Airport (KSLC)
Arrival: Minneapolis-St Paul International Airport (KMSP)
Route: RUGGD1 OCS CKW MBW BFF ANW SSWAN TORGY3


Current Weather Information
KSLC 251054Z 14009KT 10SM SCT085 BKN110 12/06 A2991 RMK AO2 SLP097 P0000 T01170056 VISNO NW RNWY
KMSP 251053Z 25007KT 10SM FEW250 15/11 A2974 RMK AO2 SLP070 T01500111